sensor_id;sensor_type;location;lat;lon;timestamp;pressure;altitude;pressure_sealevel;temperature;humidity
46379;BME280;32084;42.254;22.744;2023-02-17T00:01:01;96240.19;;;-1.02;73.06
46379;BME280;32084;42.254;22.744;2023-02-17T00:03:33;96240.53;;;-0.89;72.56
46379;BME280;32084;42.254;22.744;2023-02-17T00:06:03;96235.13;;;-0.86;72.47
46379;BME280;32084;42.254;22.744;2023-02-17T00:08:29;96245.84;;;-0.70;73.10
46379;BME280;32084;42.254;22.744;2023-02-17T00:10:56;96234.56;;;-0.72;72.49
46379;BME280;32084;42.254;22.744;2023-02-17T00:13:22;96246.69;;;-0.90;71.86
46379;BME280;32084;42.254;22.744;2023-02-17T00:15:48;96243.31;;;-0.93;72.86
46379;BME280;32084;42.254;22.744;2023-02-17T00:18:14;96242.53;;;-0.95;72.84
46379;BME280;32084;42.254;22.744;2023-02-17T00:20:40;96242.28;;;-0.89;72.72
46379;BME280;32084;42.254;22.744;2023-02-17T00:23:06;96243.78;;;-0.84;72.68
46379;BME280;32084;42.254;22.744;2023-02-17T00:25:32;96245.72;;;-0.87;72.01
46379;BME280;32084;42.254;22.744;2023-02-17T00:27:58;96241.50;;;-1.12;72.26
46379;BME280;32084;42.254;22.744;2023-02-17T00:30:24;96237.94;;;-1.11;72.97
46379;BME280;32084;42.254;22.744;2023-02-17T00:32:50;96235.53;;;-1.38;73.27
46379;BME280;32084;42.254;22.744;2023-02-17T00:35:16;96237.94;;;-1.33;73.28
46379;BME280;32084;42.254;22.744;2023-02-17T00:37:42;96235.69;;;-1.20;73.25
46379;BME280;32084;42.254;22.744;2023-02-17T00:40:10;96233.00;;;-1.41;73.90
46379;BME280;32084;42.254;22.744;2023-02-17T00:42:37;96225.34;;;-1.45;73.71
46379;BME280;32084;42.254;22.744;2023-02-17T00:45:03;96222.72;;;-1.45;74.36
46379;BME280;32084;42.254;22.744;2023-02-17T00:47:29;96215.94;;;-1.29;74.40
46379;BME280;32084;42.254;22.744;2023-02-17T00:49:55;96221.41;;;-1.13;74.07
46379;BME280;32084;42.254;22.744;2023-02-17T00:52:21;96220.88;;;-1.21;73.63
46379;BME280;32084;42.254;22.744;2023-02-17T00:54:47;96214.16;;;-1.28;73.40
46379;BME280;32084;42.254;22.744;2023-02-17T00:57:13;96218.38;;;-1.46;73.80
46379;BME280;32084;42.254;22.744;2023-02-17T00:59:39;96212.16;;;-1.44;73.39
46379;BME280;32084;42.254;22.744;2023-02-17T01:02:05;96211.16;;;-1.41;73.64
46379;BME280;32084;42.254;22.744;2023-02-17T01:04:31;96209.84;;;-1.51;73.87
46379;BME280;32084;42.254;22.744;2023-02-17T01:06:57;96209.91;;;-1.53;73.91
46379;BME280;32084;42.254;22.744;2023-02-17T01:09:24;96210.94;;;-1.57;73.80
46379;BME280;32084;42.254;22.744;2023-02-17T01:11:50;96221.72;;;-1.87;75.20
46379;BME280;32084;42.254;22.744;2023-02-17T01:14:15;96211.13;;;-1.84;75.76
46379;BME280;32084;42.254;22.744;2023-02-17T01:16:45;96215.78;;;-1.92;76.27
46379;BME280;32084;42.254;22.744;2023-02-17T01:19:13;96212.72;;;-1.80;75.61
46379;BME280;32084;42.254;22.744;2023-02-17T01:21:39;96204.91;;;-1.59;74.63
46379;BME280;32084;42.254;22.744;2023-02-17T01:24:05;96210.94;;;-1.57;74.20
46379;BME280;32084;42.254;22.744;2023-02-17T01:26:33;96214.72;;;-1.64;74.47
46379;BME280;32084;42.254;22.744;2023-02-17T01:28:59;96212.78;;;-1.59;74.31
46379;BME280;32084;42.254;22.744;2023-02-17T01:31:25;96211.69;;;-1.53;74.62
46379;BME280;32084;42.254;22.744;2023-02-17T01:33:52;96209.59;;;-1.45;74.55
46379;BME280;32084;42.254;22.744;2023-02-17T01:36:18;96213.13;;;-1.46;74.23
46379;BME280;32084;42.254;22.744;2023-02-17T01:38:44;96206.44;;;-1.53;74.36
46379;BME280;32084;42.254;22.744;2023-02-17T01:41:13;96210.69;;;-1.51;74.02
46379;BME280;32084;42.254;22.744;2023-02-17T01:43:40;96206.44;;;-1.53;73.32
46379;BME280;32084;42.254;22.744;2023-02-17T01:46:06;96219.00;;;-1.84;73.87
46379;BME280;32084;42.254;22.744;2023-02-17T01:48:34;96213.53;;;-2.01;74.63
46379;BME280;32084;42.254;22.744;2023-02-17T01:51:02;96214.22;;;-1.96;74.79
46379;BME280;32084;42.254;22.744;2023-02-17T01:53:40;96207.94;;;-1.92;75.13
46379;BME280;32084;42.254;22.744;2023-02-17T01:56:08;96207.28;;;-1.97;74.67
46379;BME280;32084;42.254;22.744;2023-02-17T01:58:35;96201.91;;;-1.94;74.93
46379;BME280;32084;42.254;22.744;2023-02-17T02:01:03;96206.28;;;-1.94;75.96
46379;BME280;32084;42.254;22.744;2023-02-17T02:03:30;96206.00;;;-1.87;75.45
46379;BME280;32084;42.254;22.744;2023-02-17T02:05:57;96202.91;;;-1.74;75.17
46379;BME280;32084;42.254;22.744;2023-02-17T02:08:26;96198.00;;;-1.62;74.84
46379;BME280;32084;42.254;22.744;2023-02-17T02:10:52;96195.00;;;-1.52;74.53
46379;BME280;32084;42.254;22.744;2023-02-17T02:13:18;96193.50;;;-1.58;74.28
46379;BME280;32084;42.254;22.744;2023-02-17T02:18:23;96196.09;;;-2.26;75.63
46379;BME280;32084;42.254;22.744;2023-02-17T02:26:17;96202.25;;;-2.03;76.71
46379;BME280;32084;42.254;22.744;2023-02-17T02:34:02;96203.88;;;-2.23;76.72
46379;BME280;32084;42.254;22.744;2023-02-17T02:36:38;96211.28;;;-2.10;76.43
46379;BME280;32084;42.254;22.744;2023-02-17T02:39:09;96210.00;;;-2.00;76.17
46379;BME280;32084;42.254;22.744;2023-02-17T02:41:40;96215.94;;;-1.95;75.78
46379;BME280;32084;42.254;22.744;2023-02-17T02:44:08;96212.75;;;-1.81;75.27
46379;BME280;32084;42.254;22.744;2023-02-17T02:46:34;96207.56;;;-1.83;75.21
46379;BME280;32084;42.254;22.744;2023-02-17T02:49:00;96206.88;;;-1.88;74.83
46379;BME280;32084;42.254;22.744;2023-02-17T02:54:05;96214.66;;;-1.85;74.84
46379;BME280;32084;42.254;22.744;2023-02-17T03:04:23;96198.97;;;-2.32;76.57
46379;BME280;32084;42.254;22.744;2023-02-17T03:06:53;96210.03;;;-2.24;76.36
46379;BME280;32084;42.254;22.744;2023-02-17T03:09:25;96214.56;;;-2.05;76.52
46379;BME280;32084;42.254;22.744;2023-02-17T03:11:52;96209.66;;;-1.91;75.86
46379;BME280;32084;42.254;22.744;2023-02-17T03:14:19;96211.56;;;-1.72;75.36
46379;BME280;32084;42.254;22.744;2023-02-17T03:16:46;96214.91;;;-1.91;75.58
46379;BME280;32084;42.254;22.744;2023-02-17T03:19:12;96223.78;;;-2.19;76.12
46379;BME280;32084;42.254;22.744;2023-02-17T03:21:46;96222.44;;;-2.29;76.88
46379;BME280;32084;42.254;22.744;2023-02-17T03:24:14;96219.16;;;-2.10;76.23
46379;BME280;32084;42.254;22.744;2023-02-17T03:26:40;96218.84;;;-2.03;76.02
46379;BME280;32084;42.254;22.744;2023-02-17T03:29:06;96217.06;;;-2.02;75.98
46379;BME280;32084;42.254;22.744;2023-02-17T03:31:32;96220.00;;;-1.88;75.48
46379;BME280;32084;42.254;22.744;2023-02-17T03:33:58;96220.44;;;-1.99;75.29
46379;BME280;32084;42.254;22.744;2023-02-17T03:36:25;96219.81;;;-2.05;75.24
46379;BME280;32084;42.254;22.744;2023-02-17T03:38:51;96230.13;;;-2.24;75.24
46379;BME280;32084;42.254;22.744;2023-02-17T03:41:17;96221.59;;;-2.29;76.53
46379;BME280;32084;42.254;22.744;2023-02-17T03:43:43;96236.25;;;-2.24;76.85
46379;BME280;32084;42.254;22.744;2023-02-17T03:46:10;96228.00;;;-2.14;76.71
46379;BME280;32084;42.254;22.744;2023-02-17T03:48:36;96230.22;;;-2.04;76.13
46379;BME280;32084;42.254;22.744;2023-02-17T03:51:09;96227.72;;;-2.30;75.67
46379;BME280;32084;42.254;22.744;2023-02-17T03:53:35;96222.31;;;-2.49;76.84
46379;BME280;32084;42.254;22.744;2023-02-17T03:56:01;96230.88;;;-2.44;77.25
46379;BME280;32084;42.254;22.744;2023-02-17T03:58:27;96226.19;;;-2.36;76.93
46379;BME280;32084;42.254;22.744;2023-02-17T04:00:53;96231.34;;;-2.33;76.44
46379;BME280;32084;42.254;22.744;2023-02-17T04:03:19;96225.75;;;-2.24;76.53
46379;BME280;32084;42.254;22.744;2023-02-17T04:05:45;96217.75;;;-2.21;76.52
46379;BME280;32084;42.254;22.744;2023-02-17T04:08:11;96218.56;;;-2.19;76.30
46379;BME280;32084;42.254;22.744;2023-02-17T04:10:37;96214.19;;;-2.18;75.95
46379;BME280;32084;42.254;22.744;2023-02-17T04:13:03;96211.78;;;-2.24;75.34
46379;BME280;32084;42.254;22.744;2023-02-17T04:15:29;96223.13;;;-2.24;75.85
46379;BME280;32084;42.254;22.744;2023-02-17T04:17:55;96220.09;;;-2.37;75.79
46379;BME280;32084;42.254;22.744;2023-02-17T04:20:21;96226.66;;;-2.48;76.46
46379;BME280;32084;42.254;22.744;2023-02-17T04:22:47;96224.31;;;-2.56;77.19
46379;BME280;32084;42.254;22.744;2023-02-17T04:25:13;96229.66;;;-2.59;77.14
46379;BME280;32084;42.254;22.744;2023-02-17T04:27:39;96231.44;;;-2.60;76.78
46379;BME280;32084;42.254;22.744;2023-02-17T04:30:05;96227.59;;;-2.51;77.25
46379;BME280;32084;42.254;22.744;2023-02-17T04:32:31;96236.16;;;-2.46;76.67
46379;BME280;32084;42.254;22.744;2023-02-17T04:34:57;96241.91;;;-2.36;76.26
46379;BME280;32084;42.254;22.744;2023-02-17T04:37:23;96232.69;;;-2.23;75.66
46379;BME280;32084;42.254;22.744;2023-02-17T04:39:49;96229.16;;;-2.22;75.68
46379;BME280;32084;42.254;22.744;2023-02-17T04:42:15;96232.69;;;-2.46;75.31
46379;BME280;32084;42.254;22.744;2023-02-17T04:44:41;96220.47;;;-2.71;76.40
46379;BME280;32084;42.254;22.744;2023-02-17T04:47:07;96223.44;;;-2.57;77.04
46379;BME280;32084;42.254;22.744;2023-02-17T04:49:33;96224.66;;;-2.42;77.26
46379;BME280;32084;42.254;22.744;2023-02-17T04:51:59;96233.34;;;-2.41;76.29
46379;BME280;32084;42.254;22.744;2023-02-17T04:54:25;96227.78;;;-2.32;75.61
46379;BME280;32084;42.254;22.744;2023-02-17T04:56:51;96224.09;;;-2.26;75.45
46379;BME280;32084;42.254;22.744;2023-02-17T04:59:17;96226.59;;;-2.23;76.07
46379;BME280;32084;42.254;22.744;2023-02-17T05:01:43;96230.47;;;-2.33;75.65
46379;BME280;32084;42.254;22.744;2023-02-17T05:04:09;96235.41;;;-2.49;75.34
46379;BME280;32084;42.254;22.744;2023-02-17T05:06:35;96229.13;;;-2.69;76.01
46379;BME280;32084;42.254;22.744;2023-02-17T05:09:01;96235.00;;;-2.87;78.02
46379;BME280;32084;42.254;22.744;2023-02-17T05:11:27;96232.28;;;-2.84;78.04
46379;BME280;32084;42.254;22.744;2023-02-17T05:13:53;96236.66;;;-2.60;77.45
46379;BME280;32084;42.254;22.744;2023-02-17T05:16:19;96248.28;;;-2.43;76.86
46379;BME280;32084;42.254;22.744;2023-02-17T05:18:45;96246.13;;;-2.56;76.28
46379;BME280;32084;42.254;22.744;2023-02-17T05:21:11;96229.53;;;-2.81;77.20
46379;BME280;32084;42.254;22.744;2023-02-17T05:23:37;96239.75;;;-2.73;77.54
46379;BME280;32084;42.254;22.744;2023-02-17T05:26:06;96236.94;;;-2.67;77.27
46379;BME280;32084;42.254;22.744;2023-02-17T05:28:34;96231.88;;;-2.73;77.58
46379;BME280;32084;42.254;22.744;2023-02-17T05:31:00;96239.53;;;-2.92;79.04
46379;BME280;32084;42.254;22.744;2023-02-17T05:33:26;96244.34;;;-2.80;78.94
46379;BME280;32084;42.254;22.744;2023-02-17T05:35:53;96243.88;;;-2.66;77.63
46379;BME280;32084;42.254;22.744;2023-02-17T05:38:19;96240.53;;;-2.71;76.53
46379;BME280;32084;42.254;22.744;2023-02-17T05:40:45;96242.84;;;-2.87;77.69
46379;BME280;32084;42.254;22.744;2023-02-17T05:43:11;96248.97;;;-2.88;78.18
46379;BME280;32084;42.254;22.744;2023-02-17T05:45:37;96250.50;;;-2.81;78.81
46379;BME280;32084;42.254;22.744;2023-02-17T05:48:03;96254.59;;;-2.49;77.76
46379;BME280;32084;42.254;22.744;2023-02-17T05:50:29;96253.78;;;-2.51;77.39
46379;BME280;32084;42.254;22.744;2023-02-17T05:52:55;96262.84;;;-2.60;77.42
46379;BME280;32084;42.254;22.744;2023-02-17T05:55:21;96263.91;;;-2.65;77.37
46379;BME280;32084;42.254;22.744;2023-02-17T05:57:47;96265.47;;;-2.60;77.55
46379;BME280;32084;42.254;22.744;2023-02-17T06:00:13;96278.25;;;-2.27;77.29
46379;BME280;32084;42.254;22.744;2023-02-17T06:02:40;96272.25;;;-2.07;76.13
46379;BME280;32084;42.254;22.744;2023-02-17T06:05:06;96278.25;;;-1.80;75.14
46379;BME280;32084;42.254;22.744;2023-02-17T06:07:32;96273.63;;;-1.73;75.26
46379;BME280;32084;42.254;22.744;2023-02-17T06:10:00;96280.19;;;-1.39;74.50
46379;BME280;32084;42.254;22.744;2023-02-17T06:12:26;96285.63;;;-0.79;72.64
46379;BME280;32084;42.254;22.744;2023-02-17T06:14:52;96269.56;;;0.84;66.46
46379;BME280;32084;42.254;22.744;2023-02-17T06:17:18;96277.28;;;2.41;61.51
46379;BME280;32084;42.254;22.744;2023-02-17T06:19:44;96281.88;;;3.47;57.77
46379;BME280;32084;42.254;22.744;2023-02-17T06:22:10;96274.06;;;2.99;58.67
46379;BME280;32084;42.254;22.744;2023-02-17T06:24:36;96273.97;;;2.37;61.06
46379;BME280;32084;42.254;22.744;2023-02-17T06:27:02;96287.53;;;2.79;60.55
46379;BME280;32084;42.254;22.744;2023-02-17T06:29:28;96284.78;;;3.42;59.72
46379;BME280;32084;42.254;22.744;2023-02-17T06:31:54;96289.03;;;4.76;56.39
46379;BME280;32084;42.254;22.744;2023-02-17T06:34:20;96298.28;;;6.04;51.43
46379;BME280;32084;42.254;22.744;2023-02-17T06:36:46;96292.03;;;5.65;51.95
46379;BME280;32084;42.254;22.744;2023-02-17T06:39:12;96288.75;;;5.75;51.14
46379;BME280;32084;42.254;22.744;2023-02-17T06:41:38;96288.06;;;6.24;50.06
46379;BME280;32084;42.254;22.744;2023-02-17T06:44:04;96292.75;;;6.46;49.26
46379;BME280;32084;42.254;22.744;2023-02-17T06:46:30;96289.44;;;7.05;48.05
46379;BME280;32084;42.254;22.744;2023-02-17T06:48:56;96299.81;;;7.21;47.47
46379;BME280;32084;42.254;22.744;2023-02-17T06:51:22;96296.94;;;7.11;47.52
46379;BME280;32084;42.254;22.744;2023-02-17T06:53:48;96291.69;;;7.71;47.11
46379;BME280;32084;42.254;22.744;2023-02-17T06:56:14;96297.50;;;8.23;45.86
46379;BME280;32084;42.254;22.744;2023-02-17T06:58:40;96291.78;;;8.05;45.16
46379;BME280;32084;42.254;22.744;2023-02-17T07:01:06;96296.31;;;7.80;46.22
46379;BME280;32084;42.254;22.744;2023-02-17T07:03:39;96300.75;;;9.39;43.59
46379;BME280;32084;42.254;22.744;2023-02-17T07:06:05;96305.16;;;10.78;40.57
46379;BME280;32084;42.254;22.744;2023-02-17T07:08:31;96309.38;;;11.30;39.38
46379;BME280;32084;42.254;22.744;2023-02-17T07:10:57;96329.50;;;11.85;38.02
46379;BME280;32084;42.254;22.744;2023-02-17T07:13:23;96319.53;;;12.16;38.08
46379;BME280;32084;42.254;22.744;2023-02-17T07:15:49;96319.34;;;11.69;38.42
46379;BME280;32084;42.254;22.744;2023-02-17T07:18:15;96318.03;;;10.93;38.37
46379;BME280;32084;42.254;22.744;2023-02-17T07:20:41;96313.88;;;10.80;39.78
46379;BME280;32084;42.254;22.744;2023-02-17T07:23:07;96304.25;;;10.04;41.15
46379;BME280;32084;42.254;22.744;2023-02-17T07:25:33;96298.25;;;8.36;44.59
46379;BME280;32084;42.254;22.744;2023-02-17T07:27:59;96288.75;;;7.14;47.38
46379;BME280;32084;42.254;22.744;2023-02-17T07:30:25;96287.06;;;6.76;48.21
46379;BME280;32084;42.254;22.744;2023-02-17T07:32:51;96275.69;;;6.74;50.18
46379;BME280;32084;42.254;22.744;2023-02-17T07:35:17;96273.09;;;6.98;49.73
46379;BME280;32084;42.254;22.744;2023-02-17T07:37:43;96278.06;;;7.27;47.90
46379;BME280;32084;42.254;22.744;2023-02-17T07:40:09;96281.69;;;7.26;48.59
46379;BME280;32084;42.254;22.744;2023-02-17T07:42:35;96274.94;;;7.33;49.12
46379;BME280;32084;42.254;22.744;2023-02-17T07:45:01;96276.09;;;7.42;48.96
46379;BME280;32084;42.254;22.744;2023-02-17T07:47:27;96284.91;;;7.18;48.91
46379;BME280;32084;42.254;22.744;2023-02-17T07:49:53;96278.00;;;6.79;50.63
46379;BME280;32084;42.254;22.744;2023-02-17T07:52:19;96264.16;;;6.87;51.61
46379;BME280;32084;42.254;22.744;2023-02-17T07:54:45;96272.13;;;6.62;54.21
46379;BME280;32084;42.254;22.744;2023-02-17T07:57:11;96282.66;;;6.88;53.40
46379;BME280;32084;42.254;22.744;2023-02-17T07:59:37;96272.66;;;6.92;53.98
46379;BME280;32084;42.254;22.744;2023-02-17T08:02:03;96277.78;;;6.95;53.17
46379;BME280;32084;42.254;22.744;2023-02-17T08:04:29;96280.31;;;7.20;52.90
46379;BME280;32084;42.254;22.744;2023-02-17T08:06:57;96280.16;;;7.35;52.75
46379;BME280;32084;42.254;22.744;2023-02-17T08:09:23;96281.72;;;7.61;51.28
46379;BME280;32084;42.254;22.744;2023-02-17T08:12:14;96283.56;;;7.37;50.96
46379;BME280;32084;42.254;22.744;2023-02-17T08:14:58;96271.25;;;7.47;51.02
46379;BME280;32084;42.254;22.744;2023-02-17T08:17:27;96273.56;;;7.76;48.79
46379;BME280;32084;42.254;22.744;2023-02-17T08:19:53;96274.88;;;7.70;48.84
46379;BME280;32084;42.254;22.744;2023-02-17T08:22:20;96276.38;;;7.86;49.26
46379;BME280;32084;42.254;22.744;2023-02-17T08:24:46;96270.47;;;7.58;49.37
46379;BME280;32084;42.254;22.744;2023-02-17T08:27:13;96272.09;;;7.83;49.67
46379;BME280;32084;42.254;22.744;2023-02-17T08:29:39;96268.75;;;7.92;49.57
46379;BME280;32084;42.254;22.744;2023-02-17T08:32:05;96272.66;;;8.11;48.83
46379;BME280;32084;42.254;22.744;2023-02-17T08:34:32;96269.66;;;8.27;49.03
46379;BME280;32084;42.254;22.744;2023-02-17T08:37:01;96271.16;;;8.65;48.42
46379;BME280;32084;42.254;22.744;2023-02-17T08:39:27;96268.25;;;8.79;48.07
46379;BME280;32084;42.254;22.744;2023-02-17T08:41:53;96270.00;;;9.12;47.25
46379;BME280;32084;42.254;22.744;2023-02-17T08:44:19;96267.53;;;9.32;47.25
46379;BME280;32084;42.254;22.744;2023-02-17T08:46:46;96273.16;;;9.82;46.25
46379;BME280;32084;42.254;22.744;2023-02-17T08:49:13;96277.06;;;10.20;45.86
46379;BME280;32084;42.254;22.744;2023-02-17T08:51:40;96272.19;;;10.25;45.26
46379;BME280;32084;42.254;22.744;2023-02-17T08:54:06;96269.28;;;10.07;45.34
46379;BME280;32084;42.254;22.744;2023-02-17T08:56:33;96261.69;;;9.91;46.43
46379;BME280;32084;42.254;22.744;2023-02-17T08:58:59;96261.38;;;10.06;45.89
46379;BME280;32084;42.254;22.744;2023-02-17T09:01:25;96259.91;;;10.34;45.25
46379;BME280;32084;42.254;22.744;2023-02-17T09:03:52;96268.72;;;10.96;43.67
46379;BME280;32084;42.254;22.744;2023-02-17T09:06:19;96263.31;;;11.27;42.97
46379;BME280;32084;42.254;22.744;2023-02-17T09:08:46;96256.41;;;11.34;42.30
46379;BME280;32084;42.254;22.744;2023-02-17T09:11:12;96253.47;;;11.37;43.27
46379;BME280;32084;42.254;22.744;2023-02-17T09:13:40;96265.31;;;11.64;42.09
46379;BME280;32084;42.254;22.744;2023-02-17T09:16:06;96266.91;;;11.76;41.45
46379;BME280;32084;42.254;22.744;2023-02-17T09:18:32;96263.66;;;11.82;41.59
46379;BME280;32084;42.254;22.744;2023-02-17T09:20:58;96263.06;;;11.88;40.78
46379;BME280;32084;42.254;22.744;2023-02-17T09:23:25;96262.69;;;12.03;40.97
46379;BME280;32084;42.254;22.744;2023-02-17T09:26:04;96259.50;;;12.27;41.00
46379;BME280;32084;42.254;22.744;2023-02-17T09:28:31;96260.84;;;12.60;39.56
46379;BME280;32084;42.254;22.744;2023-02-17T09:30:57;96251.47;;;12.74;39.58
46379;BME280;32084;42.254;22.744;2023-02-17T09:33:24;96249.75;;;12.83;38.87
46379;BME280;32084;42.254;22.744;2023-02-17T09:35:50;96251.91;;;12.69;38.53
46379;BME280;32084;42.254;22.744;2023-02-17T09:38:16;96249.78;;;13.01;38.41
46379;BME280;32084;42.254;22.744;2023-02-17T09:40:47;96236.00;;;12.58;38.88
46379;BME280;32084;42.254;22.744;2023-02-17T09:43:15;96242.78;;;12.53;38.73
46379;BME280;32084;42.254;22.744;2023-02-17T09:45:43;96228.97;;;12.47;39.29
46379;BME280;32084;42.254;22.744;2023-02-17T09:48:12;96231.75;;;12.65;38.07
46379;BME280;32084;42.254;22.744;2023-02-17T09:53:08;96228.59;;;13.25;38.02
46379;BME280;32084;42.254;22.744;2023-02-17T09:55:47;96229.25;;;13.73;37.44
46379;BME280;32084;42.254;22.744;2023-02-17T09:58:21;96237.28;;;14.09;36.55
46379;BME280;32084;42.254;22.744;2023-02-17T10:00:59;96229.16;;;14.01;36.68
46379;BME280;32084;42.254;22.744;2023-02-17T10:03:28;96221.81;;;14.11;36.78
46379;BME280;32084;42.254;22.744;2023-02-17T10:06:12;96222.84;;;14.10;36.85
46379;BME280;32084;42.254;22.744;2023-02-17T10:08:41;96224.31;;;13.86;35.75
46379;BME280;32084;42.254;22.744;2023-02-17T10:11:16;96222.25;;;13.44;36.22
46379;BME280;32084;42.254;22.744;2023-02-17T10:13:43;96217.50;;;13.74;36.13
46379;BME280;32084;42.254;22.744;2023-02-17T10:16:13;96215.34;;;14.22;35.44
46379;BME280;32084;42.254;22.744;2023-02-17T10:18:42;96209.66;;;13.99;35.99
46379;BME280;32084;42.254;22.744;2023-02-17T10:21:13;96196.38;;;14.23;36.37
46379;BME280;32084;42.254;22.744;2023-02-17T10:23:44;96193.34;;;14.87;34.85
46379;BME280;32084;42.254;22.744;2023-02-17T10:26:15;96193.53;;;14.86;34.91
46379;BME280;32084;42.254;22.744;2023-02-17T10:28:52;96181.66;;;15.13;34.77
46379;BME280;32084;42.254;22.744;2023-02-17T10:31:32;96187.94;;;14.79;34.38
46379;BME280;32084;42.254;22.744;2023-02-17T10:34:01;96182.94;;;14.92;34.55
46379;BME280;32084;42.254;22.744;2023-02-17T10:37:13;96180.78;;;15.04;35.03
46379;BME280;32084;42.254;22.744;2023-02-17T10:41:45;96164.38;;;14.73;34.27
46379;BME280;32084;42.254;22.744;2023-02-17T10:44:20;96169.44;;;14.50;35.82
46379;BME280;32084;42.254;22.744;2023-02-17T10:46:47;96169.97;;;14.53;35.01
46379;BME280;32084;42.254;22.744;2023-02-17T10:49:20;96157.50;;;14.78;34.89
46379;BME280;32084;42.254;22.744;2023-02-17T10:51:49;96149.72;;;15.26;34.02
46379;BME280;32084;42.254;22.744;2023-02-17T10:54:21;96155.09;;;15.18;33.91
46379;BME280;32084;42.254;22.744;2023-02-17T10:56:49;96152.72;;;15.23;32.74
46379;BME280;32084;42.254;22.744;2023-02-17T10:59:24;96141.97;;;15.31;33.76
46379;BME280;32084;42.254;22.744;2023-02-17T11:01:55;96144.66;;;15.48;33.75
46379;BME280;32084;42.254;22.744;2023-02-17T11:04:23;96145.38;;;15.58;33.46
46379;BME280;32084;42.254;22.744;2023-02-17T11:06:49;96142.00;;;15.56;32.86
46379;BME280;32084;42.254;22.744;2023-02-17T11:11:52;96122.59;;;15.60;33.06
46379;BME280;32084;42.254;22.744;2023-02-17T11:14:26;96123.13;;;15.97;33.38
46379;BME280;32084;42.254;22.744;2023-02-17T11:16:56;96117.38;;;16.16;32.55
46379;BME280;32084;42.254;22.744;2023-02-17T11:19:33;96114.44;;;16.34;32.18
46379;BME280;32084;42.254;22.744;2023-02-17T11:22:00;96113.56;;;16.42;31.89
46379;BME280;32084;42.254;22.744;2023-02-17T11:24:27;96102.81;;;16.34;31.65
46379;BME280;32084;42.254;22.744;2023-02-17T11:27:03;96109.75;;;16.20;31.73
46379;BME280;32084;42.254;22.744;2023-02-17T11:29:32;96101.56;;;16.53;32.10
46379;BME280;32084;42.254;22.744;2023-02-17T11:34:26;96097.94;;;16.69;31.60
46379;BME280;32084;42.254;22.744;2023-02-17T11:36:57;96090.66;;;16.38;31.33
46379;BME280;32084;42.254;22.744;2023-02-17T11:39:24;96096.38;;;16.35;31.73
46379;BME280;32084;42.254;22.744;2023-02-17T11:41:50;96090.25;;;16.49;31.49
46379;BME280;32084;42.254;22.744;2023-02-17T11:44:23;96091.47;;;16.38;30.67
46379;BME280;32084;42.254;22.744;2023-02-17T11:46:51;96084.47;;;16.21;30.82
46379;BME280;32084;42.254;22.744;2023-02-17T11:54:22;96069.66;;;16.48;31.43
46379;BME280;32084;42.254;22.744;2023-02-17T11:56:58;96070.69;;;16.47;29.67
46379;BME280;32084;42.254;22.744;2023-02-17T12:04:20;96058.84;;;16.56;29.99
46379;BME280;32084;42.254;22.744;2023-02-17T12:17:12;96050.50;;;16.35;29.25
46379;BME280;32084;42.254;22.744;2023-02-17T12:32:25;96030.00;;;16.57;29.40
46379;BME280;32084;42.254;22.744;2023-02-17T12:34:59;96031.47;;;16.28;28.26
46379;BME280;32084;42.254;22.744;2023-02-17T12:37:30;96020.66;;;16.36;28.79
46379;BME280;32084;42.254;22.744;2023-02-17T12:40:02;96017.44;;;16.33;28.59
46379;BME280;32084;42.254;22.744;2023-02-17T12:42:36;96009.50;;;16.39;28.80
46379;BME280;32084;42.254;22.744;2023-02-17T12:45:15;96012.41;;;16.30;27.59
46379;BME280;32084;42.254;22.744;2023-02-17T12:50:14;96013.75;;;16.26;28.30
46379;BME280;32084;42.254;22.744;2023-02-17T12:52:45;96014.19;;;16.14;28.88
46379;BME280;32084;42.254;22.744;2023-02-17T12:55:15;96000.84;;;16.13;29.36
46379;BME280;32084;42.254;22.744;2023-02-17T12:57:47;95998.16;;;16.05;29.33
46379;BME280;32084;42.254;22.744;2023-02-17T13:00:19;95994.50;;;15.97;29.90
46379;BME280;32084;42.254;22.744;2023-02-17T13:02:45;96005.59;;;16.03;29.30
46379;BME280;32084;42.254;22.744;2023-02-17T13:05:22;96002.03;;;16.10;29.34
46379;BME280;32084;42.254;22.744;2023-02-17T13:12:58;95993.97;;;16.02;29.19
46379;BME280;32084;42.254;22.744;2023-02-17T13:15:29;95995.69;;;16.03;27.93
46379;BME280;32084;42.254;22.744;2023-02-17T13:18:00;95997.84;;;16.08;28.63
46379;BME280;32084;42.254;22.744;2023-02-17T13:20:37;95997.34;;;16.04;29.13
46379;BME280;32084;42.254;22.744;2023-02-17T13:23:07;96003.06;;;16.09;28.94
46379;BME280;32084;42.254;22.744;2023-02-17T13:25:35;95994.81;;;16.03;28.91
46379;BME280;32084;42.254;22.744;2023-02-17T13:28:02;95996.84;;;16.00;28.69
46379;BME280;32084;42.254;22.744;2023-02-17T13:30:41;95989.63;;;15.93;28.47
46379;BME280;32084;42.254;22.744;2023-02-17T13:35:45;95978.66;;;15.94;28.86
46379;BME280;32084;42.254;22.744;2023-02-17T13:38:12;95980.16;;;15.97;29.03
46379;BME280;32084;42.254;22.744;2023-02-17T13:40:38;95984.22;;;15.93;28.13
46379;BME280;32084;42.254;22.744;2023-02-17T13:43:15;95985.44;;;15.90;28.40
46379;BME280;32084;42.254;22.744;2023-02-17T13:50:42;95978.22;;;15.74;29.41
46379;BME280;32084;42.254;22.744;2023-02-17T13:55:47;95975.19;;;15.69;28.40
46379;BME280;32084;42.254;22.744;2023-02-17T13:58:13;95974.84;;;15.64;28.38
46379;BME280;32084;42.254;22.744;2023-02-17T14:00:41;95976.56;;;15.65;28.00
46379;BME280;32084;42.254;22.744;2023-02-17T14:03:14;95971.66;;;15.60;28.11
46379;BME280;32084;42.254;22.744;2023-02-17T14:05:44;95972.50;;;15.61;28.63
46379;BME280;32084;42.254;22.744;2023-02-17T14:08:12;95978.91;;;15.60;28.09
46379;BME280;32084;42.254;22.744;2023-02-17T14:10:39;95979.59;;;15.54;28.42
46379;BME280;32084;42.254;22.744;2023-02-17T14:13:07;95974.53;;;15.51;28.32
46379;BME280;32084;42.254;22.744;2023-02-17T14:15:34;95967.00;;;15.46;28.16
46379;BME280;32084;42.254;22.744;2023-02-17T14:18:11;95970.53;;;15.47;28.54
46379;BME280;32084;42.254;22.744;2023-02-17T14:20:37;95967.66;;;15.40;28.80